createdAt,value
2023-05-21T00:01:48.735Z,15.70
2023-05-21T00:04:16.042Z,15.70
2023-05-21T00:06:43.059Z,15.70
2023-05-21T00:09:10.968Z,15.60
2023-05-21T00:11:38.482Z,15.40
2023-05-21T00:14:05.710Z,15.30
2023-05-21T00:16:32.881Z,15.30
2023-05-21T00:19:00.012Z,15.20
2023-05-21T00:21:27.129Z,15.10
2023-05-21T00:23:56.979Z,15.10
2023-05-21T00:26:26.826Z,15.10
2023-05-21T00:28:53.901Z,15.10
2023-05-21T00:31:21.171Z,15.10
2023-05-21T00:33:48.191Z,15.00
2023-05-21T00:36:15.443Z,15.00
2023-05-21T00:38:44.298Z,15.10
2023-05-21T00:41:11.467Z,15.10
2023-05-21T00:43:42.333Z,15.10
2023-05-21T00:46:16.968Z,15.20
2023-05-21T00:48:47.660Z,15.20
2023-05-21T00:51:15.333Z,15.10
2023-05-21T00:53:42.908Z,15.10
2023-05-21T00:56:10.353Z,15.10
2023-05-21T00:58:37.600Z,15.10
2023-05-21T01:01:07.315Z,15.00
2023-05-21T01:03:38.827Z,15.00
2023-05-21T01:06:06.572Z,15.00
2023-05-21T01:08:35.199Z,14.90
2023-05-21T01:11:05.715Z,14.90
2023-05-21T01:13:34.317Z,14.80
2023-05-21T01:16:02.050Z,14.80
2023-05-21T01:18:30.255Z,14.70
2023-05-21T01:20:57.310Z,14.70
2023-05-21T01:23:24.507Z,14.70
2023-05-21T01:25:51.604Z,14.70
2023-05-21T01:28:18.641Z,14.70
2023-05-21T01:30:46.829Z,14.70
2023-05-21T01:33:23.630Z,14.70
2023-05-21T01:35:51.541Z,14.70
2023-05-21T01:38:24.888Z,14.60
2023-05-21T01:40:52.488Z,14.60
2023-05-21T01:43:19.957Z,14.60
2023-05-21T01:45:48.011Z,14.60
2023-05-21T01:48:15.263Z,14.60
2023-05-21T01:50:44.035Z,14.40
2023-05-21T01:53:11.061Z,14.30
2023-05-21T01:55:42.226Z,14.30
2023-05-21T01:58:09.437Z,14.20
2023-05-21T02:00:37.705Z,14.20
2023-05-21T02:03:04.795Z,14.30
2023-05-21T02:05:32.217Z,14.30
2023-05-21T02:08:01.835Z,14.40
2023-05-21T02:10:28.885Z,14.40
2023-05-21T02:12:55.940Z,14.40
2023-05-21T02:15:25.270Z,14.40
2023-05-21T02:17:53.372Z,14.40
2023-05-21T02:20:22.981Z,14.40
2023-05-21T02:22:50.189Z,14.30
2023-05-21T02:25:18.583Z,14.30
2023-05-21T02:27:47.125Z,14.20
2023-05-21T02:30:15.284Z,14.20
2023-05-21T02:32:43.323Z,14.30
2023-05-21T02:35:11.629Z,14.30
2023-05-21T02:37:40.740Z,14.30
2023-05-21T02:40:10.022Z,14.20
2023-05-21T02:42:40.024Z,14.20
2023-05-21T02:45:11.730Z,14.20
2023-05-21T02:47:39.279Z,14.20
2023-05-21T02:50:07.317Z,14.10
2023-05-21T02:52:34.342Z,14.10
2023-05-21T02:55:01.540Z,14.10
2023-05-21T02:57:28.580Z,14.10
2023-05-21T02:59:55.881Z,14.10
2023-05-21T03:02:23.495Z,14.00
2023-05-21T03:04:51.663Z,13.90
2023-05-21T03:07:20.283Z,13.80
2023-05-21T03:09:47.498Z,13.70
2023-05-21T03:12:14.542Z,13.70
2023-05-21T03:14:44.355Z,13.70
2023-05-21T03:17:14.233Z,13.80
2023-05-21T03:19:42.073Z,13.80
2023-05-21T03:22:09.636Z,13.80
2023-05-21T03:24:36.997Z,13.80
2023-05-21T03:27:06.879Z,13.80
2023-05-21T03:29:34.316Z,13.80
2023-05-21T03:32:01.893Z,13.80
2023-05-21T03:34:29.004Z,13.90
2023-05-21T03:36:56.209Z,13.90
2023-05-21T03:39:23.486Z,13.80
2023-05-21T03:41:50.764Z,13.80
2023-05-21T03:44:17.826Z,13.80
2023-05-21T03:46:46.124Z,13.80
2023-05-21T03:49:14.324Z,13.90
2023-05-21T03:51:41.360Z,13.90
2023-05-21T03:54:08.870Z,13.80
2023-05-21T03:56:36.044Z,13.80
2023-05-21T03:59:03.062Z,13.70
2023-05-21T04:01:30.184Z,13.70
2023-05-21T04:03:57.483Z,13.70
2023-05-21T04:06:24.664Z,13.70
2023-05-21T04:08:52.513Z,13.70
2023-05-21T04:11:19.475Z,13.70
2023-05-21T04:13:46.514Z,13.70
2023-05-21T04:16:15.011Z,13.70
2023-05-21T04:18:44.215Z,13.80
2023-05-21T04:21:12.754Z,13.90
2023-05-21T04:23:40.024Z,13.80
2023-05-21T04:26:07.917Z,13.80
2023-05-21T04:28:35.682Z,13.80
2023-05-21T04:31:03.010Z,13.80
2023-05-21T04:33:30.646Z,13.70
2023-05-21T04:35:58.151Z,13.70
2023-05-21T04:38:26.236Z,13.70
2023-05-21T04:40:53.519Z,13.70
2023-05-21T04:43:26.885Z,13.80
2023-05-21T04:45:55.220Z,13.80
2023-05-21T04:48:27.237Z,13.80
2023-05-21T04:50:54.859Z,13.80
2023-05-21T04:53:22.812Z,13.80
2023-05-21T04:55:49.826Z,13.80
2023-05-21T04:58:18.832Z,13.80
2023-05-21T05:00:51.896Z,13.80
2023-05-21T05:03:19.129Z,13.90
2023-05-21T05:05:46.478Z,13.90
2023-05-21T05:08:15.829Z,14.00
2023-05-21T05:10:43.232Z,14.00
2023-05-21T05:13:10.320Z,14.20
2023-05-21T05:15:37.531Z,14.20
2023-05-21T05:18:07.173Z,14.30
2023-05-21T05:20:34.417Z,14.30
2023-05-21T05:23:01.549Z,14.40
2023-05-21T05:25:28.686Z,14.30
2023-05-21T05:27:55.738Z,14.40
2023-05-21T05:30:22.787Z,14.40
2023-05-21T05:32:49.994Z,14.50
2023-05-21T05:35:17.081Z,14.50
2023-05-21T05:37:44.158Z,14.50
2023-05-21T05:40:11.315Z,14.60
2023-05-21T05:42:38.489Z,14.60
2023-05-21T05:45:05.719Z,14.70
2023-05-21T05:47:33.042Z,14.80
2023-05-21T05:50:00.283Z,14.80
2023-05-21T05:52:27.451Z,14.90
2023-05-21T05:54:54.489Z,14.90
2023-05-21T05:57:21.536Z,14.90
2023-05-21T05:59:48.571Z,15.00
2023-05-21T06:02:16.107Z,15.00
2023-05-21T06:04:43.280Z,15.10
2023-05-21T06:07:10.422Z,15.00
2023-05-21T06:09:39.081Z,15.10
2023-05-21T06:12:07.079Z,15.20
2023-05-21T06:14:34.120Z,15.30
2023-05-21T06:17:01.325Z,15.30
2023-05-21T06:19:28.548Z,15.40
2023-05-21T06:21:55.779Z,15.50
2023-05-21T06:24:22.921Z,15.50
2023-05-21T06:26:49.987Z,15.60
2023-05-21T06:29:17.385Z,15.60
2023-05-21T06:31:44.579Z,15.70
2023-05-21T06:34:12.155Z,15.70
2023-05-21T06:36:39.322Z,15.80
2023-05-21T06:39:06.271Z,15.80
2023-05-21T06:41:33.282Z,15.80
2023-05-21T06:44:00.312Z,15.90
2023-05-21T06:46:27.335Z,16.00
2023-05-21T06:48:54.443Z,16.00
2023-05-21T06:51:21.650Z,16.00
2023-05-21T06:53:48.702Z,16.10
2023-05-21T06:56:15.701Z,16.10
2023-05-21T06:58:42.717Z,16.20
2023-05-21T07:01:09.752Z,16.30
2023-05-21T07:03:36.917Z,16.40
2023-05-21T07:06:04.171Z,16.40
2023-05-21T07:08:31.176Z,16.40
2023-05-21T07:10:58.176Z,16.50
2023-05-21T07:13:25.178Z,16.60
2023-05-21T07:15:52.138Z,16.60
2023-05-21T07:18:19.701Z,16.70
2023-05-21T07:20:46.826Z,16.90
2023-05-21T07:23:13.789Z,16.90
2023-05-21T07:25:40.811Z,16.90
2023-05-21T07:28:08.143Z,16.90
2023-05-21T07:30:35.140Z,16.80
2023-05-21T07:33:02.412Z,16.90
2023-05-21T07:35:29.537Z,17.00
2023-05-21T07:37:56.678Z,17.20
2023-05-21T07:40:23.698Z,17.30
2023-05-21T07:42:50.896Z,17.40
2023-05-21T07:45:18.028Z,17.60
2023-05-21T07:47:47.044Z,17.80
2023-05-21T07:50:14.592Z,17.80
2023-05-21T07:52:41.756Z,17.90
2023-05-21T07:55:09.341Z,18.00
2023-05-21T07:57:37.250Z,18.10
2023-05-21T08:00:07.083Z,18.30
2023-05-21T08:02:34.158Z,18.40
2023-05-21T08:05:02.031Z,18.50
2023-05-21T08:07:29.161Z,18.50
2023-05-21T08:09:56.248Z,18.40
2023-05-21T08:12:23.268Z,18.30
2023-05-21T08:14:50.447Z,18.30
2023-05-21T08:17:17.577Z,18.50
2023-05-21T08:19:44.683Z,18.50
2023-05-21T08:22:11.731Z,18.60
2023-05-21T08:24:38.750Z,18.70
2023-05-21T08:27:05.887Z,18.60
2023-05-21T08:29:33.428Z,18.70
2023-05-21T08:32:00.524Z,18.80
2023-05-21T08:34:27.671Z,18.90
2023-05-21T08:36:54.681Z,19.10
2023-05-21T08:39:21.950Z,19.20
2023-05-21T08:41:52.741Z,19.10
2023-05-21T08:44:21.598Z,19.20
2023-05-21T08:46:51.134Z,19.20
2023-05-21T08:49:19.202Z,19.30
2023-05-21T08:51:47.344Z,19.40
2023-05-21T08:54:17.530Z,19.40
2023-05-21T08:56:47.350Z,19.40
2023-05-21T08:59:14.701Z,19.60
2023-05-21T09:01:42.693Z,19.70
2023-05-21T09:04:20.316Z,19.70
2023-05-21T09:06:48.845Z,19.50
2023-05-21T09:09:24.949Z,19.50
2023-05-21T09:11:52.386Z,19.60
2023-05-21T09:14:19.699Z,19.70
2023-05-21T09:16:50.260Z,19.90
2023-05-21T09:19:17.353Z,19.90
2023-05-21T09:21:44.476Z,19.80
2023-05-21T09:24:11.534Z,19.80
2023-05-21T09:26:42.280Z,19.90
2023-05-21T09:29:09.433Z,20.00
2023-05-21T09:31:37.308Z,20.10
2023-05-21T09:34:04.341Z,20.00
2023-05-21T09:36:32.254Z,20.00
2023-05-21T09:39:00.446Z,19.90
2023-05-21T09:41:37.104Z,19.80
2023-05-21T09:44:04.377Z,19.90
2023-05-21T09:46:41.560Z,20.10
2023-05-21T09:49:22.656Z,20.30
2023-05-21T09:51:49.882Z,20.40
2023-05-21T09:54:16.966Z,20.50
2023-05-21T09:56:44.022Z,20.40
2023-05-21T09:59:11.452Z,20.50
2023-05-21T10:01:39.146Z,20.60
2023-05-21T10:04:09.755Z,20.60
2023-05-21T10:06:43.999Z,20.60
2023-05-21T10:09:11.826Z,20.60
2023-05-21T10:11:40.274Z,20.60
2023-05-21T10:14:08.173Z,20.80
2023-05-21T10:16:36.169Z,21.10
2023-05-21T10:19:04.146Z,21.30
2023-05-21T10:21:33.587Z,21.30
2023-05-21T10:24:02.420Z,21.40
2023-05-21T10:26:30.364Z,21.30
2023-05-21T10:28:58.378Z,21.40
2023-05-21T10:31:26.896Z,21.60
2023-05-21T10:33:55.456Z,21.70
2023-05-21T10:36:23.531Z,21.80
2023-05-21T10:38:51.219Z,22.00
2023-05-21T10:41:19.588Z,22.10
2023-05-21T10:44:02.272Z,22.20
2023-05-21T10:46:29.309Z,22.20
2023-05-21T10:49:11.453Z,21.90
2023-05-21T10:51:55.089Z,21.90
2023-05-21T10:54:34.331Z,22.10
2023-05-21T10:57:18.867Z,22.20
2023-05-21T10:59:46.123Z,22.20
2023-05-21T11:02:14.979Z,22.30
2023-05-21T11:04:45.213Z,22.40
2023-05-21T11:07:12.970Z,22.50
2023-05-21T11:09:40.125Z,22.60
2023-05-21T11:12:08.405Z,22.70
2023-05-21T11:14:36.850Z,22.60
2023-05-21T11:17:04.955Z,22.60
2023-05-21T11:19:53.110Z,22.80
2023-05-21T11:22:20.285Z,22.70
2023-05-21T11:24:48.836Z,22.80
2023-05-21T11:27:34.358Z,22.80
2023-05-21T11:30:04.118Z,22.80
2023-05-21T11:32:32.310Z,22.80
2023-05-21T11:35:05.148Z,22.80
2023-05-21T11:37:33.728Z,23.00
2023-05-21T11:40:39.287Z,23.30
2023-05-21T11:43:06.374Z,23.50
2023-05-21T11:45:33.628Z,23.30
2023-05-21T11:48:00.995Z,23.30
2023-05-21T11:50:30.832Z,23.30
2023-05-21T11:53:00.139Z,23.30
2023-05-21T11:55:27.395Z,23.40
2023-05-21T11:57:55.507Z,23.40
2023-05-21T12:00:23.402Z,23.40
2023-05-21T12:02:51.484Z,23.50
2023-05-21T12:05:18.842Z,23.80
2023-05-21T12:07:50.587Z,24.10
2023-05-21T12:10:20.940Z,24.20
2023-05-21T12:12:55.580Z,24.30
2023-05-21T12:15:24.773Z,24.30
2023-05-21T12:17:53.353Z,24.30
2023-05-21T12:20:20.766Z,24.20
2023-05-21T12:22:49.244Z,24.20
2023-05-21T12:25:20.389Z,24.30
2023-05-21T12:27:48.707Z,24.30
2023-05-21T12:30:16.039Z,24.20
2023-05-21T12:32:46.969Z,24.10
2023-05-21T12:35:20.769Z,24.10
2023-05-21T12:37:50.894Z,24.40
2023-05-21T12:40:18.383Z,24.50
2023-05-21T12:42:45.651Z,24.60
2023-05-21T12:45:12.979Z,24.60
2023-05-21T12:47:40.022Z,24.50
2023-05-21T12:50:12.611Z,24.60
2023-05-21T12:52:40.778Z,24.80
2023-05-21T12:55:09.524Z,24.90
2023-05-21T12:57:39.223Z,24.90
2023-05-21T13:00:10.541Z,24.90
2023-05-21T13:02:41.606Z,24.80
2023-05-21T13:05:10.100Z,24.80
2023-05-21T13:07:38.332Z,25.00
2023-05-21T13:10:06.035Z,25.20
2023-05-21T13:12:33.737Z,25.40
2023-05-21T13:15:01.694Z,25.50
2023-05-21T13:17:28.906Z,25.50
2023-05-21T13:20:15.458Z,25.50
2023-05-21T13:22:47.061Z,25.50
2023-05-21T13:25:20.143Z,25.60
2023-05-21T13:27:47.972Z,25.60
2023-05-21T13:30:15.179Z,25.60
2023-05-21T13:32:42.944Z,25.90
2023-05-21T13:35:10.568Z,26.10
2023-05-21T13:37:39.853Z,26.10
2023-05-21T13:40:07.788Z,26.30
2023-05-21T13:42:35.768Z,26.30
2023-05-21T13:45:02.854Z,26.40
2023-05-21T13:47:29.931Z,26.30
2023-05-21T13:49:56.951Z,26.40
2023-05-21T13:52:24.175Z,26.60
2023-05-21T13:54:51.243Z,26.90
2023-05-21T13:57:18.283Z,26.60
2023-05-21T13:59:45.321Z,26.60
2023-05-21T14:02:12.449Z,26.40
2023-05-21T14:04:39.800Z,26.50
2023-05-21T14:07:07.439Z,26.40
2023-05-21T14:09:34.590Z,26.50
2023-05-21T14:12:01.875Z,26.60
2023-05-21T14:14:28.956Z,26.70
2023-05-21T14:16:56.130Z,26.40
2023-05-21T14:19:23.283Z,26.50
2023-05-21T14:21:53.142Z,26.40
2023-05-21T14:24:20.724Z,26.50
2023-05-21T14:26:47.840Z,26.60
2023-05-21T14:29:14.929Z,26.70
2023-05-21T14:31:41.939Z,26.90
2023-05-21T14:34:09.115Z,27.10
2023-05-21T14:36:36.702Z,27.10
2023-05-21T14:39:04.179Z,27.20
2023-05-21T14:41:31.472Z,27.30
2023-05-21T14:43:58.557Z,27.40
2023-05-21T14:46:26.170Z,27.30
2023-05-21T14:48:53.346Z,27.40
2023-05-21T14:51:20.629Z,27.30
2023-05-21T14:53:47.704Z,27.30
2023-05-21T14:56:14.781Z,27.30
2023-05-21T14:58:42.106Z,27.30
2023-05-21T15:01:09.312Z,27.40
2023-05-21T15:03:36.601Z,27.60
2023-05-21T15:06:03.867Z,27.80
2023-05-21T15:08:31.251Z,27.90
2023-05-21T15:10:58.373Z,27.90
2023-05-21T15:13:25.576Z,27.90
2023-05-21T15:15:52.695Z,27.80
2023-05-21T15:18:19.881Z,27.80
2023-05-21T15:20:46.883Z,27.80
2023-05-21T15:23:17.174Z,27.60
2023-05-21T15:25:45.392Z,27.40
2023-05-21T15:28:12.793Z,27.40
2023-05-21T15:30:40.215Z,27.60
2023-05-21T15:33:07.332Z,27.90
2023-05-21T15:36:05.653Z,27.70
2023-05-21T15:38:33.103Z,27.60
2023-05-21T15:41:00.326Z,27.70
2023-05-21T15:43:27.393Z,27.90
2023-05-21T15:45:54.494Z,28.10
2023-05-21T15:48:23.248Z,28.20
2023-05-21T15:50:50.461Z,28.10
2023-05-21T15:53:17.506Z,28.10
2023-05-21T15:55:45.092Z,28.20
2023-05-21T15:58:12.239Z,28.30
2023-05-21T16:00:39.433Z,28.20
2023-05-21T16:03:06.607Z,28.20
2023-05-21T16:05:33.934Z,28.20
2023-05-21T16:08:01.272Z,28.10
2023-05-21T16:10:28.377Z,28.10
2023-05-21T16:12:55.415Z,27.70
2023-05-21T16:15:22.565Z,27.60
2023-05-21T16:17:49.726Z,27.60
2023-05-21T16:20:19.001Z,27.60
2023-05-21T16:22:46.273Z,27.50
2023-05-21T16:25:13.332Z,27.50
2023-05-21T16:27:40.473Z,27.50
2023-05-21T16:30:07.817Z,27.50
2023-05-21T16:32:35.207Z,27.50
2023-05-21T16:35:02.300Z,27.50
2023-05-21T16:37:29.284Z,27.50
2023-05-21T16:39:56.341Z,27.40
2023-05-21T16:42:24.285Z,27.40
2023-05-21T16:44:51.353Z,27.40
2023-05-21T16:47:18.358Z,27.30
2023-05-21T16:49:45.337Z,27.30
2023-05-21T16:52:12.298Z,27.20
2023-05-21T16:54:39.419Z,27.20
2023-05-21T16:57:06.949Z,27.10
2023-05-21T16:59:34.012Z,27.20
2023-05-21T17:02:01.272Z,27.10
2023-05-21T17:04:29.027Z,27.10
2023-05-21T17:06:56.080Z,27.00
2023-05-21T17:09:23.142Z,26.60
2023-05-21T17:11:50.215Z,26.60
2023-05-21T17:14:32.568Z,26.70
2023-05-21T17:17:00.654Z,26.70
2023-05-21T17:19:27.899Z,26.80
2023-05-21T17:21:55.533Z,26.80
2023-05-21T17:24:22.531Z,26.70
2023-05-21T17:26:49.593Z,26.60
2023-05-21T17:29:16.707Z,26.60
2023-05-21T17:31:43.826Z,26.50
2023-05-21T17:34:11.213Z,26.40
2023-05-21T17:36:38.474Z,26.30
2023-05-21T17:39:05.589Z,26.30
2023-05-21T17:41:32.653Z,26.30
2023-05-21T17:43:59.723Z,26.40
2023-05-21T17:46:26.885Z,26.30
2023-05-21T17:48:54.048Z,26.20
2023-05-21T17:51:21.080Z,26.10
2023-05-21T17:53:48.159Z,26.10
2023-05-21T17:56:15.440Z,26.10
2023-05-21T17:58:42.519Z,25.90
2023-05-21T18:01:09.767Z,25.80
2023-05-21T18:03:36.838Z,25.70
2023-05-21T18:06:04.141Z,25.70
2023-05-21T18:08:31.207Z,25.60
2023-05-21T18:10:58.478Z,25.50
2023-05-21T18:13:25.593Z,25.40
2023-05-21T18:15:52.874Z,25.40
2023-05-21T18:18:21.660Z,25.40
2023-05-21T18:20:49.516Z,25.20
2023-05-21T18:23:16.796Z,25.00
2023-05-21T18:25:43.989Z,24.90
2023-05-21T18:28:11.167Z,24.80
2023-05-21T18:30:38.571Z,24.70
2023-05-21T18:33:06.241Z,24.60
2023-05-21T18:35:33.361Z,24.50
2023-05-21T18:38:00.404Z,24.50
2023-05-21T18:40:30.749Z,24.30
2023-05-21T18:42:57.934Z,24.30
2023-05-21T18:45:24.980Z,24.10
2023-05-21T18:47:52.235Z,23.90
2023-05-21T18:50:19.841Z,23.80
2023-05-21T18:52:47.143Z,23.70
2023-05-21T18:55:14.567Z,23.60
2023-05-21T18:57:41.658Z,23.50
2023-05-21T19:00:12.917Z,23.50
2023-05-21T19:02:40.275Z,23.40
2023-05-21T19:05:07.851Z,23.30
2023-05-21T19:07:35.290Z,23.40
2023-05-21T19:10:03.210Z,23.50
2023-05-21T19:12:31.642Z,23.50
2023-05-21T19:14:58.788Z,23.50
2023-05-21T19:17:26.173Z,23.50
2023-05-21T19:19:56.502Z,23.50
2023-05-21T19:22:24.641Z,23.40
2023-05-21T19:24:52.018Z,23.40
2023-05-21T19:27:19.136Z,23.40
2023-05-21T19:29:46.574Z,23.40
2023-05-21T19:32:14.161Z,23.30
2023-05-21T19:34:41.419Z,23.20
2023-05-21T19:37:08.552Z,23.20
2023-05-21T19:39:39.542Z,23.20
2023-05-21T19:42:07.134Z,23.10
2023-05-21T19:44:34.204Z,23.10
2023-05-21T19:47:01.873Z,22.90
2023-05-21T19:49:29.028Z,22.80
2023-05-21T19:51:56.453Z,22.80
2023-05-21T19:54:23.998Z,22.70
2023-05-21T19:56:51.873Z,22.70
2023-05-21T19:59:19.080Z,22.60
2023-05-21T20:01:46.307Z,22.50
2023-05-21T20:04:14.968Z,22.40
2023-05-21T20:06:42.177Z,22.30
2023-05-21T20:09:11.050Z,22.20
2023-05-21T20:11:38.354Z,22.10
2023-05-21T20:14:05.545Z,21.90
2023-05-21T20:16:33.705Z,21.90
2023-05-21T20:19:01.992Z,21.90
2023-05-21T20:21:29.746Z,21.90
2023-05-21T20:23:56.755Z,21.90
2023-05-21T20:26:23.925Z,21.80
2023-05-21T20:28:51.015Z,21.70
2023-05-21T20:31:18.080Z,21.60
2023-05-21T20:33:45.154Z,21.60
2023-05-21T20:36:13.938Z,21.60
2023-05-21T20:38:42.352Z,21.60
2023-05-21T20:41:09.385Z,21.50
2023-05-21T20:43:37.611Z,21.50
2023-05-21T20:46:05.957Z,21.50
2023-05-21T20:48:33.117Z,21.40
2023-05-21T20:51:04.744Z,21.40
2023-05-21T20:53:32.375Z,21.40
2023-05-21T20:56:01.794Z,21.40
2023-05-21T20:58:29.066Z,21.30
2023-05-21T21:00:56.131Z,21.20
2023-05-21T21:03:23.365Z,21.10
2023-05-21T21:05:51.039Z,21.00
2023-05-21T21:08:18.064Z,21.00
2023-05-21T21:10:47.168Z,20.90
2023-05-21T21:13:14.537Z,20.90
2023-05-21T21:15:41.811Z,20.90
2023-05-21T21:18:08.969Z,20.80
2023-05-21T21:20:36.163Z,20.70
2023-05-21T21:23:03.286Z,20.60
2023-05-21T21:25:30.281Z,20.60
2023-05-21T21:27:57.330Z,20.50
2023-05-21T21:30:24.455Z,20.30
2023-05-21T21:32:51.831Z,20.20
2023-05-21T21:35:19.046Z,20.10
2023-05-21T21:37:46.442Z,20.10
2023-05-21T21:40:13.768Z,20.10
2023-05-21T21:42:42.228Z,20.00
2023-05-21T21:45:09.617Z,20.00
2023-05-21T21:47:36.696Z,20.00
2023-05-21T21:50:03.945Z,20.00
2023-05-21T21:52:31.021Z,19.90
2023-05-21T21:54:58.129Z,19.90
2023-05-21T21:57:27.726Z,19.80
2023-05-21T21:59:54.742Z,19.70
2023-05-21T22:02:22.299Z,19.60
2023-05-21T22:04:49.368Z,19.50
2023-05-21T22:07:18.219Z,19.40
2023-05-21T22:09:45.884Z,19.40
2023-05-21T22:12:13.147Z,19.30
2023-05-21T22:14:40.286Z,19.30
2023-05-21T22:17:08.746Z,19.10
2023-05-21T22:19:36.204Z,19.10
2023-05-21T22:22:04.510Z,19.10
2023-05-21T22:24:33.266Z,19.10
2023-05-21T22:27:00.776Z,19.00
2023-05-21T22:29:27.778Z,19.00
2023-05-21T22:31:54.782Z,19.00
2023-05-21T22:34:23.230Z,19.00
2023-05-21T22:36:50.218Z,18.90
2023-05-21T22:39:17.603Z,18.80
2023-05-21T22:41:45.030Z,18.90
2023-05-21T22:44:12.152Z,18.80
2023-05-21T22:46:39.239Z,18.80
2023-05-21T22:49:06.774Z,18.80
2023-05-21T22:51:34.966Z,18.70
2023-05-21T22:54:02.050Z,18.70
2023-05-21T22:56:29.320Z,18.70
2023-05-21T22:58:56.764Z,18.70
2023-05-21T23:01:24.077Z,18.60
2023-05-21T23:03:51.716Z,18.70
2023-05-21T23:06:18.861Z,18.70
2023-05-21T23:08:46.113Z,18.70
2023-05-21T23:11:13.049Z,18.60
2023-05-21T23:13:40.064Z,18.60
2023-05-21T23:16:07.403Z,18.60
2023-05-21T23:18:35.414Z,18.60
2023-05-21T23:21:02.665Z,18.60
2023-05-21T23:23:29.718Z,18.50
2023-05-21T23:25:57.908Z,18.40
2023-05-21T23:28:26.177Z,18.40
2023-05-21T23:30:53.225Z,18.40
2023-05-21T23:33:20.263Z,18.40
2023-05-21T23:35:47.304Z,18.30
2023-05-21T23:38:14.476Z,18.30
2023-05-21T23:40:42.084Z,18.20
2023-05-21T23:43:09.091Z,18.00
2023-05-21T23:45:36.484Z,17.90
2023-05-21T23:48:03.863Z,17.90
2023-05-21T23:50:31.097Z,17.90
2023-05-21T23:52:58.650Z,17.90
2023-05-21T23:55:25.822Z,18.00
2023-05-21T23:57:52.952Z,18.00
